This is the latest recevied weather packets stored in our database for station/object WC4PEM. If no packets are shown the sender has not sent any weather packets the latest 10 day(s).
| Time | Temp. | Humidity | Pressure | Rain* | Wind** | Luminosity | Snow |
|---|---|---|---|---|---|---|---|
| 1777571681 | 32.22° C | 49% | 1010.5 hPa | 0 mm | - | - | - |
| 1777571509 | 32.78° C | 47% | 1010.7 hPa | 0 mm | - | - | - |
| 1777571381 | 32.78° C | 47% | 1010.7 hPa | 0 mm | - | - | - |
| 1777571350 | 33.33° C | 47% | 1010.7 hPa | 0 mm | - | - | - |
| 1777571081 | 33.33° C | 47% | 1010.7 hPa | 0 mm | - | - | - |
| 1777570967 | 32.78° C | 48% | 1010.8 hPa | 0 mm | - | - | - |
| 1777570781 | 32.78° C | 48% | 1010.8 hPa | 0 mm | - | - | - |
| 1777570607 | 32.22° C | 50% | 1011.1 hPa | 0 mm | - | - | - |
| 1777570481 | 32.22° C | 50% | 1011.1 hPa | 0 mm | - | - | - |
| 1777570181 | 31.67° C | 52% | 1011.1 hPa | 0 mm | - | - | - |
| 1777569881 | 31.67° C | 50% | 1011.1 hPa | 0 mm | - | - | - |
| 1777569581 | 31.11° C | 54% | 1011 hPa | 0 mm | - | - | - |
| 1777569467 | 31.11° C | 53% | 1011.1 hPa | 0 mm | - | - | - |
| 1777569281 | 31.11° C | 53% | 1011.1 hPa | 0 mm | - | - | - |
| 1777569119 | 31.67° C | 52% | 1011 hPa | 0 mm | - | - | - |
| 1777568981 | 31.67° C | 52% | 1011 hPa | 0 mm | - | - | - |
| 1777568681 | 31.67° C | 52% | 1011 hPa | 0 mm | - | - | - |
| 1777568381 | 31.67° C | 53% | 1011.1 hPa | 0 mm | - | - | - |
| 1777568264 | 31.67° C | 52% | 1011.2 hPa | 0 mm | - | - | - |
| 1777568081 | 31.67° C | 52% | 1011.2 hPa | 0 mm | - | - | - |
| 1777567908 | 31.11° C | 53% | 1011.1 hPa | 0 mm | - | - | - |
| 1777567781 | 31.11° C | 53% | 1011.1 hPa | 0 mm | - | - | - |
| 1777567523 | 30° C | 55% | 1011.2 hPa | 0 mm | - | - | - |
| 1777567481 | 30.56° C | 54% | 1011.1 hPa | 0 mm | - | - | - |
| 1777567181 | 30° C | 57% | 1011.3 hPa | 0 mm | - | - | - |
* Rain latest hour (hover to see other rain measurements)
** Current wind speed in m/s (hover to see current wind gust speed)